createdAt,value
2022-11-10T00:00:17.873Z,14.50
2022-11-10T00:03:05.802Z,14.50
2022-11-10T00:05:52.700Z,14.50
2022-11-10T00:08:39.783Z,14.40
2022-11-10T00:11:26.462Z,14.40
2022-11-10T00:14:34.246Z,14.40
2022-11-10T00:17:21.069Z,14.40
2022-11-10T00:20:08.972Z,14.40
2022-11-10T00:22:56.833Z,14.40
2022-11-10T00:25:43.639Z,14.40
2022-11-10T00:28:32.467Z,14.50
2022-11-10T00:31:20.673Z,14.50
2022-11-10T00:34:08.224Z,14.40
2022-11-10T00:36:55.077Z,14.30
2022-11-10T00:39:41.827Z,14.40
2022-11-10T00:42:28.557Z,14.30
2022-11-10T00:45:15.246Z,14.30
2022-11-10T00:48:03.324Z,14.30
2022-11-10T00:50:49.945Z,14.30
2022-11-10T00:53:36.570Z,14.30
2022-11-10T00:56:23.821Z,14.30
2022-11-10T00:59:10.785Z,14.20
2022-11-10T01:01:57.374Z,14.30
2022-11-10T01:04:45.724Z,14.20
2022-11-10T01:07:33.610Z,14.00
2022-11-10T01:10:20.448Z,13.80
2022-11-10T01:13:06.947Z,13.70
2022-11-10T01:15:53.754Z,13.70
2022-11-10T01:18:40.817Z,13.60
2022-11-10T01:21:30.443Z,13.70
2022-11-10T01:24:20.577Z,13.70
2022-11-10T01:27:07.508Z,13.60
2022-11-10T01:29:54.093Z,13.60
2022-11-10T01:32:40.704Z,13.60
2022-11-10T01:35:27.376Z,13.50
2022-11-10T01:38:15.520Z,13.50
2022-11-10T01:41:02.815Z,13.30
2022-11-10T01:43:49.657Z,13.40
2022-11-10T01:46:36.458Z,13.40
2022-11-10T01:49:25.514Z,13.30
2022-11-10T01:52:15.671Z,13.10
2022-11-10T01:55:03.847Z,12.80
2022-11-10T01:57:50.577Z,12.60
2022-11-10T02:00:37.683Z,12.40
2022-11-10T02:03:30.349Z,12.40
2022-11-10T02:06:18.462Z,12.40
2022-11-10T02:09:05.144Z,12.30
2022-11-10T02:11:56.261Z,12.30
2022-11-10T02:14:42.974Z,12.50
2022-11-10T02:17:29.497Z,12.50
2022-11-10T02:20:19.007Z,12.50
2022-11-10T02:23:15.521Z,12.40
2022-11-10T02:26:03.752Z,12.40
2022-11-10T02:28:51.654Z,12.40
2022-11-10T02:31:38.657Z,12.40
2022-11-10T02:34:25.404Z,12.50
2022-11-10T02:37:12.472Z,12.60
2022-11-10T02:40:00.577Z,12.50
2022-11-10T02:42:47.444Z,12.60
2022-11-10T02:45:34.499Z,12.50
2022-11-10T02:48:21.351Z,12.50
2022-11-10T02:51:08.057Z,12.40
2022-11-10T02:53:54.945Z,12.30
2022-11-10T02:56:42.996Z,12.20
2022-11-10T02:59:29.745Z,12.10
2022-11-10T03:02:16.576Z,12.10
2022-11-10T03:05:03.369Z,12.10
2022-11-10T03:07:55.590Z,11.90
2022-11-10T03:10:42.626Z,11.80
2022-11-10T03:13:51.284Z,11.80
2022-11-10T03:16:37.928Z,11.80
2022-11-10T03:19:24.513Z,11.70
2022-11-10T03:22:11.087Z,11.60
2022-11-10T03:24:57.977Z,11.40
2022-11-10T03:27:44.700Z,11.40
2022-11-10T03:30:32.785Z,11.50
2022-11-10T03:33:20.080Z,11.60
2022-11-10T03:36:07.551Z,11.80
2022-11-10T03:38:54.076Z,11.80
2022-11-10T03:41:41.149Z,11.90
2022-11-10T03:44:27.859Z,11.90
2022-11-10T03:47:15.882Z,11.90
2022-11-10T03:50:02.948Z,11.80
2022-11-10T03:52:49.813Z,11.90
2022-11-10T03:55:36.817Z,11.90
2022-11-10T03:58:23.465Z,11.90
2022-11-10T04:01:10.459Z,11.90
2022-11-10T04:03:58.564Z,11.80
2022-11-10T04:07:02.483Z,11.90
2022-11-10T04:09:49.311Z,11.80
2022-11-10T04:12:53.337Z,11.60
2022-11-10T04:15:43.073Z,11.50
2022-11-10T04:18:29.827Z,11.40
2022-11-10T04:21:18.124Z,11.30
2022-11-10T04:24:05.184Z,11.40
2022-11-10T04:26:51.703Z,11.50
2022-11-10T04:29:38.332Z,11.50
2022-11-10T04:32:25.096Z,11.40
2022-11-10T04:35:11.669Z,11.30
2022-11-10T04:37:59.990Z,11.20
2022-11-10T04:40:46.576Z,11.10
2022-11-10T04:43:33.475Z,11.00
2022-11-10T04:46:23.571Z,11.10
2022-11-10T04:49:12.133Z,11.20
2022-11-10T04:51:59.056Z,11.40
2022-11-10T04:54:47.572Z,11.30
2022-11-10T04:57:34.302Z,11.40
2022-11-10T05:00:21.447Z,11.30
2022-11-10T05:03:10.104Z,11.00
2022-11-10T05:05:56.934Z,11.10
2022-11-10T05:08:44.521Z,11.10
2022-11-10T05:11:32.583Z,11.10
2022-11-10T05:14:19.578Z,11.10
2022-11-10T05:17:06.152Z,11.10
2022-11-10T05:19:52.793Z,11.10
2022-11-10T05:22:39.535Z,11.10
2022-11-10T05:25:26.149Z,11.10
2022-11-10T05:28:14.477Z,11.00
2022-11-10T05:31:01.241Z,10.90
2022-11-10T05:33:48.024Z,10.80
2022-11-10T05:36:34.635Z,10.80
2022-11-10T05:39:21.224Z,11.00
2022-11-10T05:42:07.807Z,11.10
2022-11-10T05:44:55.869Z,11.10
2022-11-10T05:47:43.294Z,11.20
2022-11-10T05:50:30.150Z,11.20
2022-11-10T05:53:16.859Z,11.10
2022-11-10T05:56:03.707Z,11.20
2022-11-10T05:58:50.535Z,11.20
2022-11-10T06:01:38.940Z,11.30
2022-11-10T06:04:25.764Z,11.40
2022-11-10T06:07:12.935Z,11.40
2022-11-10T06:09:59.634Z,11.40
2022-11-10T06:12:46.780Z,11.40
2022-11-10T06:15:34.139Z,11.40
2022-11-10T06:18:22.367Z,11.50
2022-11-10T06:21:09.202Z,11.40
2022-11-10T06:23:56.106Z,11.10
2022-11-10T06:26:42.872Z,11.00
2022-11-10T06:29:29.464Z,10.90
2022-11-10T06:32:16.909Z,10.80
2022-11-10T06:35:05.594Z,10.90
2022-11-10T06:38:00.017Z,11.00
2022-11-10T06:40:46.847Z,11.00
2022-11-10T06:43:33.386Z,11.10
2022-11-10T06:46:20.275Z,11.10
2022-11-10T06:49:07.273Z,11.10
2022-11-10T06:51:55.241Z,10.90
2022-11-10T06:54:42.223Z,10.90
2022-11-10T06:57:29.084Z,11.00
2022-11-10T07:00:17.111Z,11.00
2022-11-10T07:03:05.885Z,11.20
2022-11-10T07:05:52.757Z,11.10
2022-11-10T07:08:40.923Z,11.10
2022-11-10T07:11:27.719Z,11.10
2022-11-10T07:14:14.757Z,11.10
2022-11-10T07:17:01.746Z,11.10
2022-11-10T07:19:48.566Z,11.10
2022-11-10T07:22:35.360Z,11.10
2022-11-10T07:25:23.312Z,11.10
2022-11-10T07:28:11.463Z,11.10
2022-11-10T07:30:58.854Z,10.90
2022-11-10T07:33:53.304Z,10.80
2022-11-10T07:36:41.407Z,10.70
2022-11-10T07:39:28.258Z,10.70
2022-11-10T07:42:16.919Z,10.80
2022-11-10T07:45:03.727Z,11.00
2022-11-10T07:47:51.489Z,11.20
2022-11-10T07:50:38.496Z,11.40
2022-11-10T07:53:25.983Z,11.50
2022-11-10T07:56:12.851Z,11.80
2022-11-10T07:59:01.088Z,11.90
2022-11-10T08:01:48.057Z,12.00
2022-11-10T08:04:34.492Z,12.20
2022-11-10T08:07:21.606Z,12.30
2022-11-10T08:10:09.559Z,12.40
2022-11-10T08:12:57.739Z,12.60
2022-11-10T08:15:45.483Z,12.80
2022-11-10T08:18:35.300Z,12.90
2022-11-10T08:21:22.684Z,13.10
2022-11-10T08:24:09.879Z,13.10
2022-11-10T08:26:57.850Z,13.10
2022-11-10T08:29:44.850Z,13.30
2022-11-10T08:32:33.282Z,13.50
2022-11-10T08:35:20.310Z,13.60
2022-11-10T08:38:09.776Z,13.80
2022-11-10T08:40:57.876Z,13.90
2022-11-10T08:43:44.492Z,13.80
2022-11-10T08:46:31.182Z,13.80
2022-11-10T08:49:19.274Z,13.90
2022-11-10T08:52:05.983Z,14.20
2022-11-10T08:54:52.774Z,14.20
2022-11-10T08:57:39.179Z,14.20
2022-11-10T09:00:25.840Z,14.10
2022-11-10T09:03:15.324Z,14.00
2022-11-10T09:06:03.766Z,13.80
2022-11-10T09:08:50.336Z,13.60
2022-11-10T09:11:37.111Z,13.60
2022-11-10T09:14:23.929Z,13.70
2022-11-10T09:17:10.741Z,13.80
2022-11-10T09:19:57.831Z,13.90
2022-11-10T09:22:46.284Z,14.10
2022-11-10T09:25:32.735Z,14.20
2022-11-10T09:28:20.676Z,14.40
2022-11-10T09:31:07.454Z,14.40
2022-11-10T09:33:54.174Z,14.50
2022-11-10T09:36:41.251Z,14.60
2022-11-10T09:39:29.954Z,14.70
2022-11-10T09:42:28.569Z,14.80
2022-11-10T09:45:23.706Z,14.80
2022-11-10T09:48:18.336Z,14.80
2022-11-10T09:51:09.579Z,14.70
2022-11-10T09:53:58.525Z,14.80
2022-11-10T09:56:46.446Z,15.00
2022-11-10T09:59:35.406Z,15.00
2022-11-10T10:02:29.647Z,14.90
2022-11-10T10:05:52.516Z,14.90
2022-11-10T10:08:50.145Z,14.90
2022-11-10T10:11:53.047Z,15.30
2022-11-10T10:14:57.519Z,15.50
2022-11-10T10:17:54.408Z,15.60
2022-11-10T10:20:53.756Z,15.70
2022-11-10T10:27:01.250Z,16.10
2022-11-10T10:29:49.408Z,16.30
2022-11-10T10:32:36.555Z,16.30
2022-11-10T10:35:24.154Z,16.20
2022-11-10T10:38:21.491Z,16.30
2022-11-10T10:41:19.640Z,16.20
2022-11-10T10:44:14.421Z,16.20
2022-11-10T10:47:02.964Z,16.30
2022-11-10T10:49:49.847Z,16.50
2022-11-10T10:52:36.684Z,16.60
2022-11-10T10:55:30.208Z,16.70
2022-11-10T10:58:26.094Z,17.10
2022-11-10T11:01:28.975Z,17.20
2022-11-10T11:04:31.397Z,17.10
2022-11-10T11:07:23.080Z,17.10
2022-11-10T11:10:21.750Z,17.10
2022-11-10T11:13:16.810Z,17.20
2022-11-10T11:16:07.191Z,17.00
2022-11-10T11:18:55.887Z,16.70
2022-11-10T11:21:53.174Z,16.80
2022-11-10T11:24:48.206Z,17.00
2022-11-10T11:27:41.688Z,16.90
2022-11-10T11:30:38.914Z,16.90
2022-11-10T11:33:42.070Z,16.90
2022-11-10T11:36:40.416Z,16.80
2022-11-10T11:39:42.698Z,16.90
2022-11-10T11:42:48.584Z,17.00
2022-11-10T11:45:46.689Z,16.90
2022-11-10T11:48:52.729Z,16.90
2022-11-10T11:51:48.680Z,17.10
2022-11-10T11:54:49.001Z,17.20
2022-11-10T11:57:45.676Z,17.30
2022-11-10T12:00:39.486Z,17.40
2022-11-10T12:04:14.243Z,17.60
2022-11-10T12:07:14.375Z,17.80
2022-11-10T12:10:11.047Z,17.80
2022-11-10T12:13:22.461Z,17.80
2022-11-10T12:16:16.647Z,17.70
2022-11-10T12:19:19.225Z,17.70
2022-11-10T12:22:17.865Z,17.90
2022-11-10T12:25:15.172Z,17.90
2022-11-10T12:28:10.502Z,18.10
2022-11-10T12:31:03.344Z,18.00
2022-11-10T12:33:54.675Z,18.30
2022-11-10T12:36:41.883Z,18.60
2022-11-10T12:39:38.533Z,18.70
2022-11-10T12:42:29.305Z,18.70
2022-11-10T12:45:22.333Z,19.00
2022-11-10T12:48:12.090Z,19.00
2022-11-10T12:51:04.467Z,19.00
2022-11-10T12:53:51.839Z,19.00
2022-11-10T12:56:45.458Z,19.00
2022-11-10T12:59:34.810Z,19.00
2022-11-10T13:02:29.802Z,18.80
2022-11-10T13:05:31.782Z,19.00
2022-11-10T13:08:27.322Z,18.90
2022-11-10T13:11:29.125Z,18.60
2022-11-10T13:14:25.598Z,18.70
2022-11-10T13:17:28.169Z,18.70
2022-11-10T13:20:49.349Z,18.90
2022-11-10T13:23:50.758Z,19.00
2022-11-10T13:26:53.281Z,19.00
2022-11-10T13:29:58.396Z,19.10
2022-11-10T13:32:45.077Z,19.00
2022-11-10T13:35:55.136Z,18.90
2022-11-10T13:38:43.602Z,19.20
2022-11-10T13:41:35.510Z,19.10
2022-11-10T13:44:25.222Z,18.90
2022-11-10T13:47:35.998Z,18.70
2022-11-10T13:50:36.614Z,18.60
2022-11-10T13:53:35.921Z,18.60
2022-11-10T13:56:44.558Z,18.60
2022-11-10T13:59:53.317Z,18.60
2022-11-10T14:02:54.018Z,18.60
2022-11-10T14:06:10.806Z,18.60
2022-11-10T14:09:03.986Z,18.70
2022-11-10T14:11:52.381Z,19.00
2022-11-10T14:14:50.240Z,19.10
2022-11-10T14:17:45.431Z,19.10
2022-11-10T14:20:39.157Z,19.00
2022-11-10T14:23:31.250Z,19.00
2022-11-10T14:26:25.733Z,19.20
2022-11-10T14:29:38.420Z,19.30
2022-11-10T14:32:26.590Z,19.30
2022-11-10T14:35:23.201Z,19.30
2022-11-10T14:38:21.122Z,19.30
2022-11-10T14:41:17.290Z,19.30
2022-11-10T14:44:05.034Z,19.20
2022-11-10T14:46:52.584Z,19.00
2022-11-10T14:49:39.495Z,18.90
2022-11-10T14:52:26.281Z,18.70
2022-11-10T14:55:19.371Z,18.70
2022-11-10T14:58:12.610Z,18.50
2022-11-10T15:00:59.635Z,18.40
2022-11-10T15:03:46.679Z,18.40
2022-11-10T15:06:34.153Z,18.10
2022-11-10T15:09:25.652Z,18.00
2022-11-10T15:12:27.868Z,18.00
2022-11-10T15:15:22.988Z,18.20
2022-11-10T15:18:25.685Z,18.10
2022-11-10T15:21:14.451Z,18.20
2022-11-10T15:24:05.483Z,18.10
2022-11-10T15:26:52.587Z,18.00
2022-11-10T15:29:40.925Z,17.70
2022-11-10T15:32:35.495Z,17.50
2022-11-10T15:35:32.847Z,17.10
2022-11-10T15:38:32.943Z,16.90
2022-11-10T15:41:27.505Z,16.70
2022-11-10T15:44:20.247Z,16.70
2022-11-10T15:47:13.276Z,16.70
2022-11-10T15:50:02.223Z,16.80
2022-11-10T15:52:49.129Z,16.80
2022-11-10T15:55:35.579Z,16.40
2022-11-10T15:58:23.830Z,15.90
2022-11-10T16:01:12.580Z,15.50
2022-11-10T16:04:01.124Z,15.30
2022-11-10T16:06:48.408Z,15.00
2022-11-10T16:09:35.179Z,15.10
2022-11-10T16:12:23.398Z,15.10
2022-11-10T16:15:16.469Z,15.00
2022-11-10T16:18:04.469Z,15.10
2022-11-10T16:20:53.962Z,14.70
2022-11-10T16:23:41.477Z,14.60
2022-11-10T16:26:28.669Z,14.60
2022-11-10T16:29:18.166Z,14.30
2022-11-10T16:32:05.342Z,14.20
2022-11-10T16:34:52.508Z,13.90
2022-11-10T16:37:42.058Z,13.80
2022-11-10T16:43:25.120Z,13.60
2022-11-10T16:46:21.461Z,13.70
2022-11-10T16:49:23.699Z,13.60
2022-11-10T16:52:15.849Z,13.50
2022-11-10T16:55:10.458Z,13.40
2022-11-10T16:57:57.605Z,13.20
2022-11-10T17:00:45.741Z,13.40
2022-11-10T17:03:34.400Z,13.40
2022-11-10T17:06:24.307Z,13.40
2022-11-10T17:09:17.270Z,13.50
2022-11-10T17:12:06.285Z,13.40
2022-11-10T17:14:53.555Z,13.30
2022-11-10T17:17:41.485Z,13.30
2022-11-10T17:20:34.640Z,13.40
2022-11-10T17:23:24.875Z,13.40
2022-11-10T17:26:14.700Z,13.20
2022-11-10T17:29:03.279Z,13.00
2022-11-10T17:31:51.260Z,12.90
2022-11-10T17:34:38.458Z,12.70
2022-11-10T17:37:25.476Z,12.60
2022-11-10T17:40:19.556Z,12.70
2022-11-10T17:43:06.452Z,12.70
2022-11-10T17:45:55.080Z,12.70
2022-11-10T17:48:42.420Z,12.80
2022-11-10T17:51:29.563Z,12.60
2022-11-10T17:54:17.089Z,12.50
2022-11-10T17:57:04.584Z,12.20
2022-11-10T17:59:51.919Z,12.10
2022-11-10T18:02:40.402Z,12.10
2022-11-10T18:05:27.415Z,12.00
2022-11-10T18:08:15.458Z,12.10
2022-11-10T18:11:02.594Z,12.00
2022-11-10T18:13:49.741Z,12.00
2022-11-10T18:16:36.664Z,12.10
2022-11-10T18:19:25.225Z,12.20
2022-11-10T18:22:11.940Z,12.30
2022-11-10T18:24:58.868Z,12.40
2022-11-10T18:27:46.192Z,12.40
2022-11-10T18:30:35.434Z,12.30
2022-11-10T18:33:22.791Z,12.30
2022-11-10T18:36:12.445Z,12.40
2022-11-10T18:39:02.217Z,12.40
2022-11-10T18:41:52.391Z,12.20
2022-11-10T18:44:39.625Z,12.30
2022-11-10T18:47:28.463Z,12.20
2022-11-10T18:50:15.888Z,12.20
2022-11-10T18:53:05.566Z,12.20
2022-11-10T18:55:55.710Z,12.30
2022-11-10T18:58:42.526Z,12.30
2022-11-10T19:01:29.705Z,11.90
2022-11-10T19:04:16.771Z,11.70
2022-11-10T19:09:56.180Z,12.00
2022-11-10T19:12:43.613Z,11.90
2022-11-10T19:15:30.853Z,11.90
2022-11-10T19:18:19.909Z,11.90
2022-11-10T19:21:11.333Z,11.70
2022-11-10T19:24:27.285Z,11.60
2022-11-10T19:28:13.190Z,11.50
2022-11-10T19:31:04.841Z,11.40
2022-11-10T19:33:54.470Z,11.40
2022-11-10T19:36:42.541Z,11.30
2022-11-10T19:39:30.091Z,11.40
2022-11-10T19:42:17.231Z,11.50
2022-11-10T19:45:08.813Z,11.30
2022-11-10T19:47:59.897Z,11.30
2022-11-10T19:50:53.488Z,11.20
2022-11-10T19:53:40.695Z,11.40
2022-11-10T19:56:31.640Z,11.40
2022-11-10T19:59:21.460Z,11.60
2022-11-10T20:02:13.369Z,11.70
2022-11-10T20:05:17.355Z,11.80
2022-11-10T20:08:12.359Z,11.90
2022-11-10T20:11:01.830Z,12.00
2022-11-10T20:13:54.223Z,12.00
2022-11-10T20:16:42.184Z,11.80
2022-11-10T20:19:31.400Z,11.50
2022-11-10T20:22:19.235Z,11.40
2022-11-10T20:25:07.029Z,11.30
2022-11-10T20:28:02.335Z,11.40
2022-11-10T20:31:07.893Z,11.50
2022-11-10T20:34:04.267Z,11.70
2022-11-10T20:36:56.030Z,11.80
2022-11-10T20:39:49.098Z,12.10
2022-11-10T20:42:44.313Z,12.00
2022-11-10T20:45:33.583Z,11.70
2022-11-10T20:48:21.099Z,11.40
2022-11-10T20:51:13.692Z,11.60
2022-11-10T20:54:02.643Z,11.70
2022-11-10T20:56:50.467Z,11.30
2022-11-10T21:01:11.595Z,10.90
2022-11-10T21:03:58.748Z,11.10
2022-11-10T21:10:38.503Z,10.80
2022-11-10T21:13:26.770Z,10.70
2022-11-10T21:16:13.822Z,10.60
2022-11-10T21:19:02.163Z,10.30
2022-11-10T21:21:51.205Z,9.90
2022-11-10T21:24:46.370Z,9.70
2022-11-10T21:27:42.588Z,9.90
2022-11-10T21:30:30.929Z,10.10
2022-11-10T21:33:18.472Z,10.20
2022-11-10T21:36:10.815Z,10.30
2022-11-10T21:39:03.103Z,10.50
2022-11-10T21:41:51.206Z,10.60
2022-11-10T21:44:42.468Z,10.80
2022-11-10T21:47:30.123Z,10.80
2022-11-10T21:50:33.102Z,10.90
2022-11-10T21:53:23.397Z,11.00
2022-11-10T21:56:12.363Z,11.10
2022-11-10T21:59:01.504Z,11.00
2022-11-10T22:02:24.938Z,10.90
2022-11-10T22:05:33.266Z,11.10
2022-11-10T22:08:22.269Z,11.20
2022-11-10T22:11:32.269Z,11.10
2022-11-10T22:14:39.731Z,10.80
2022-11-10T22:21:12.844Z,10.40
2022-11-10T22:24:37.459Z,10.20
2022-11-10T22:28:19.755Z,10.30
2022-11-10T22:31:52.531Z,10.40
2022-11-10T22:35:03.174Z,10.40
2022-11-10T22:38:10.978Z,10.50
2022-11-10T22:44:50.330Z,10.40
2022-11-10T22:53:00.481Z,9.80
2022-11-10T22:55:54.889Z,9.70
2022-11-10T22:59:01.730Z,9.80
2022-11-10T23:02:25.032Z,10.00
2022-11-10T23:05:56.205Z,10.10
2022-11-10T23:09:13.025Z,10.30
2022-11-10T23:12:49.356Z,10.40
2022-11-10T23:16:18.022Z,10.50
2022-11-10T23:19:20.596Z,10.40
2022-11-10T23:22:29.112Z,10.50
2022-11-10T23:25:18.571Z,10.50
2022-11-10T23:28:08.192Z,10.50
2022-11-10T23:31:04.297Z,10.50
2022-11-10T23:33:55.082Z,9.90
2022-11-10T23:36:42.573Z,9.60
2022-11-10T23:39:30.693Z,9.40
2022-11-10T23:42:18.186Z,9.00
2022-11-10T23:45:14.816Z,9.00
2022-11-10T23:48:07.000Z,9.00
2022-11-10T23:50:54.477Z,8.90
2022-11-10T23:53:44.637Z,9.00
2022-11-10T23:56:33.807Z,9.00
2022-11-10T23:59:21.156Z,8.80
